sensor_id;sensor_type;location;lat;lon;timestamp;pressure;altitude;pressure_sealevel;temperature;humidity
7441;BME280;29616;51.950;8.572;2023-04-23T00:02:21;99175.16;;;13.62;100.00
7441;BME280;29616;51.950;8.572;2023-04-23T00:04:51;99177.31;;;13.66;100.00
7441;BME280;29616;51.950;8.572;2023-04-23T00:07:22;99177.41;;;13.58;100.00
7441;BME280;29616;51.950;8.572;2023-04-23T00:09:52;99170.69;;;13.61;100.00
7441;BME280;29616;51.950;8.572;2023-04-23T00:12:25;99170.03;;;13.59;100.00
7441;BME280;29616;51.950;8.572;2023-04-23T00:14:56;99169.50;;;13.49;100.00
7441;BME280;29616;51.950;8.572;2023-04-23T00:17:26;99174.31;;;13.47;100.00
7441;BME280;29616;51.950;8.572;2023-04-23T00:19:56;99177.28;;;13.45;100.00
7441;BME280;29616;51.950;8.572;2023-04-23T00:22:26;99164.25;;;13.32;100.00
7441;BME280;29616;51.950;8.572;2023-04-23T00:24:54;99182.00;;;13.36;100.00
7441;BME280;29616;51.950;8.572;2023-04-23T00:27:25;99179.88;;;13.17;100.00
7441;BME280;29616;51.950;8.572;2023-04-23T00:29:54;99184.31;;;13.04;100.00
7441;BME280;29616;51.950;8.572;2023-04-23T00:32:24;99182.63;;;13.03;100.00
7441;BME280;29616;51.950;8.572;2023-04-23T00:34:54;99192.06;;;13.00;100.00
7441;BME280;29616;51.950;8.572;2023-04-23T00:37:23;99193.38;;;13.04;100.00
7441;BME280;29616;51.950;8.572;2023-04-23T00:39:54;99190.19;;;13.01;100.00
7441;BME280;29616;51.950;8.572;2023-04-23T00:42:24;99164.94;;;12.91;100.00
7441;BME280;29616;51.950;8.572;2023-04-23T00:44:53;99192.53;;;12.89;100.00
7441;BME280;29616;51.950;8.572;2023-04-23T00:47:24;99187.25;;;12.88;100.00
7441;BME280;29616;51.950;8.572;2023-04-23T00:49:52;99186.41;;;12.87;100.00
7441;BME280;29616;51.950;8.572;2023-04-23T00:52:24;99174.09;;;12.83;100.00
7441;BME280;29616;51.950;8.572;2023-04-23T00:54:55;99176.41;;;12.80;100.00
7441;BME280;29616;51.950;8.572;2023-04-23T00:57:25;99167.78;;;12.68;100.00
7441;BME280;29616;51.950;8.572;2023-04-23T00:59:55;99187.44;;;12.71;100.00
7441;BME280;29616;51.950;8.572;2023-04-23T01:02:25;99189.78;;;12.60;100.00
7441;BME280;29616;51.950;8.572;2023-04-23T01:04:55;99191.03;;;12.57;100.00
7441;BME280;29616;51.950;8.572;2023-04-23T01:07:25;99179.47;;;12.62;100.00
7441;BME280;29616;51.950;8.572;2023-04-23T01:09:56;99186.88;;;12.76;100.00
7441;BME280;29616;51.950;8.572;2023-04-23T01:12:28;99163.25;;;12.60;100.00
7441;BME280;29616;51.950;8.572;2023-04-23T01:14:56;99185.34;;;12.59;100.00
7441;BME280;29616;51.950;8.572;2023-04-23T01:17:27;99182.44;;;12.60;100.00
7441;BME280;29616;51.950;8.572;2023-04-23T01:19:56;99179.94;;;12.51;100.00
7441;BME280;29616;51.950;8.572;2023-04-23T01:22:26;99169.25;;;12.41;100.00
7441;BME280;29616;51.950;8.572;2023-04-23T01:24:54;99184.00;;;12.40;100.00
7441;BME280;29616;51.950;8.572;2023-04-23T01:27:24;99182.50;;;12.52;100.00
7441;BME280;29616;51.950;8.572;2023-04-23T01:29:53;99181.09;;;12.42;100.00
7441;BME280;29616;51.950;8.572;2023-04-23T01:32:22;99184.47;;;12.44;100.00
7441;BME280;29616;51.950;8.572;2023-04-23T01:34:54;99188.06;;;12.44;100.00
7441;BME280;29616;51.950;8.572;2023-04-23T01:37:27;99192.03;;;12.42;100.00
7441;BME280;29616;51.950;8.572;2023-04-23T01:39:56;99187.97;;;12.38;100.00
7441;BME280;29616;51.950;8.572;2023-04-23T01:42:27;99188.94;;;12.45;100.00
7441;BME280;29616;51.950;8.572;2023-04-23T01:44:56;99187.66;;;12.33;100.00
7441;BME280;29616;51.950;8.572;2023-04-23T01:47:27;99183.53;;;12.37;100.00
7441;BME280;29616;51.950;8.572;2023-04-23T01:49:57;99190.69;;;12.38;100.00
7441;BME280;29616;51.950;8.572;2023-04-23T01:52:29;99187.75;;;12.25;100.00
7441;BME280;29616;51.950;8.572;2023-04-23T01:54:58;99183.31;;;12.24;100.00
7441;BME280;29616;51.950;8.572;2023-04-23T01:57:29;99194.56;;;12.29;100.00
7441;BME280;29616;51.950;8.572;2023-04-23T02:00:11;99199.47;;;12.19;100.00
7441;BME280;29616;51.950;8.572;2023-04-23T02:02:42;99202.84;;;12.21;100.00
7441;BME280;29616;51.950;8.572;2023-04-23T02:05:16;99205.81;;;12.34;100.00
7441;BME280;29616;51.950;8.572;2023-04-23T02:07:49;99201.06;;;12.28;100.00
7441;BME280;29616;51.950;8.572;2023-04-23T02:10:18;99204.44;;;12.15;100.00
7441;BME280;29616;51.950;8.572;2023-04-23T02:12:49;99191.13;;;12.12;100.00
7441;BME280;29616;51.950;8.572;2023-04-23T02:15:17;99176.47;;;12.05;100.00
7441;BME280;29616;51.950;8.572;2023-04-23T02:17:48;99195.63;;;12.05;100.00
7441;BME280;29616;51.950;8.572;2023-04-23T02:20:17;99181.53;;;11.93;100.00
7441;BME280;29616;51.950;8.572;2023-04-23T02:22:49;99181.03;;;11.90;100.00
7441;BME280;29616;51.950;8.572;2023-04-23T02:25:19;99187.97;;;11.78;100.00
7441;BME280;29616;51.950;8.572;2023-04-23T02:27:49;99192.72;;;11.84;100.00
7441;BME280;29616;51.950;8.572;2023-04-23T02:30:20;99197.03;;;11.78;100.00
7441;BME280;29616;51.950;8.572;2023-04-23T02:32:50;99197.75;;;11.72;100.00
7441;BME280;29616;51.950;8.572;2023-04-23T02:35:18;99198.78;;;11.71;100.00
7441;BME280;29616;51.950;8.572;2023-04-23T02:37:50;99209.22;;;11.68;100.00
7441;BME280;29616;51.950;8.572;2023-04-23T02:40:22;99200.56;;;11.56;100.00
7441;BME280;29616;51.950;8.572;2023-04-23T02:42:52;99201.94;;;11.60;100.00
7441;BME280;29616;51.950;8.572;2023-04-23T02:45:20;99193.81;;;11.44;100.00
7441;BME280;29616;51.950;8.572;2023-04-23T02:47:49;99208.44;;;11.59;100.00
7441;BME280;29616;51.950;8.572;2023-04-23T02:50:21;99208.72;;;11.64;100.00
7441;BME280;29616;51.950;8.572;2023-04-23T02:52:51;99211.41;;;11.49;100.00
7441;BME280;29616;51.950;8.572;2023-04-23T02:55:22;99216.97;;;11.33;100.00
7441;BME280;29616;51.950;8.572;2023-04-23T02:57:51;99223.25;;;11.34;100.00
7441;BME280;29616;51.950;8.572;2023-04-23T03:00:21;99210.59;;;11.41;100.00
7441;BME280;29616;51.950;8.572;2023-04-23T03:02:51;99208.75;;;11.33;100.00
7441;BME280;29616;51.950;8.572;2023-04-23T03:05:21;99214.53;;;11.38;100.00
7441;BME280;29616;51.950;8.572;2023-04-23T03:07:50;99218.81;;;11.41;100.00
7441;BME280;29616;51.950;8.572;2023-04-23T03:10:20;99212.91;;;11.21;100.00
7441;BME280;29616;51.950;8.572;2023-04-23T03:12:50;99220.56;;;11.26;100.00
7441;BME280;29616;51.950;8.572;2023-04-23T03:15:21;99228.41;;;11.29;100.00
7441;BME280;29616;51.950;8.572;2023-04-23T03:17:50;99235.81;;;11.28;100.00
7441;BME280;29616;51.950;8.572;2023-04-23T03:20:21;99229.13;;;11.31;100.00
7441;BME280;29616;51.950;8.572;2023-04-23T03:22:51;99244.31;;;11.33;100.00
7441;BME280;29616;51.950;8.572;2023-04-23T03:25:22;99234.78;;;11.21;100.00
7441;BME280;29616;51.950;8.572;2023-04-23T03:27:53;99238.69;;;11.27;100.00
7441;BME280;29616;51.950;8.572;2023-04-23T03:30:21;99228.81;;;11.18;100.00
7441;BME280;29616;51.950;8.572;2023-04-23T03:32:52;99225.22;;;11.25;100.00
7441;BME280;29616;51.950;8.572;2023-04-23T03:35:23;99219.75;;;11.25;100.00
7441;BME280;29616;51.950;8.572;2023-04-23T03:37:56;99222.28;;;11.27;100.00
7441;BME280;29616;51.950;8.572;2023-04-23T03:40:24;99229.66;;;11.18;100.00
7441;BME280;29616;51.950;8.572;2023-04-23T03:42:58;99234.78;;;11.21;100.00
7441;BME280;29616;51.950;8.572;2023-04-23T03:45:47;99230.88;;;11.16;100.00
7441;BME280;29616;51.950;8.572;2023-04-23T03:48:17;99222.66;;;11.16;100.00
7441;BME280;29616;51.950;8.572;2023-04-23T03:50:49;99234.13;;;11.19;100.00
7441;BME280;29616;51.950;8.572;2023-04-23T03:53:41;99248.31;;;11.23;100.00
7441;BME280;29616;51.950;8.572;2023-04-23T03:56:29;99249.50;;;11.20;100.00
7441;BME280;29616;51.950;8.572;2023-04-23T03:59:19;99242.88;;;11.15;100.00
7441;BME280;29616;51.950;8.572;2023-04-23T04:01:52;99254.31;;;11.10;100.00
7441;BME280;29616;51.950;8.572;2023-04-23T04:04:21;99238.06;;;11.17;100.00
7441;BME280;29616;51.950;8.572;2023-04-23T04:06:51;99249.66;;;11.19;100.00
7441;BME280;29616;51.950;8.572;2023-04-23T04:09:20;99241.97;;;11.22;100.00
7441;BME280;29616;51.950;8.572;2023-04-23T04:11:50;99244.56;;;11.16;100.00
7441;BME280;29616;51.950;8.572;2023-04-23T04:14:19;99229.72;;;11.02;100.00
7441;BME280;29616;51.950;8.572;2023-04-23T04:16:49;99227.81;;;11.11;100.00
7441;BME280;29616;51.950;8.572;2023-04-23T04:19:17;99237.22;;;11.08;100.00
7441;BME280;29616;51.950;8.572;2023-04-23T04:21:45;99237.78;;;11.04;100.00
7441;BME280;29616;51.950;8.572;2023-04-23T04:24:14;99239.84;;;11.02;100.00
7441;BME280;29616;51.950;8.572;2023-04-23T04:26:45;99241.38;;;11.04;100.00
7441;BME280;29616;51.950;8.572;2023-04-23T04:29:14;99240.50;;;11.04;100.00
7441;BME280;29616;51.950;8.572;2023-04-23T04:31:42;99241.69;;;11.09;100.00
7441;BME280;29616;51.950;8.572;2023-04-23T04:34:10;99237.75;;;11.12;100.00
7441;BME280;29616;51.950;8.572;2023-04-23T04:36:42;99234.63;;;11.23;100.00
7441;BME280;29616;51.950;8.572;2023-04-23T04:39:10;99227.13;;;11.17;100.00
7441;BME280;29616;51.950;8.572;2023-04-23T04:41:43;99223.88;;;11.13;100.00
7441;BME280;29616;51.950;8.572;2023-04-23T04:44:12;99222.34;;;11.11;100.00
7441;BME280;29616;51.950;8.572;2023-04-23T04:46:42;99217.75;;;11.11;100.00
7441;BME280;29616;51.950;8.572;2023-04-23T04:49:11;99223.56;;;11.08;100.00
7441;BME280;29616;51.950;8.572;2023-04-23T04:51:42;99226.50;;;11.07;100.00
7441;BME280;29616;51.950;8.572;2023-04-23T04:54:10;99222.06;;;10.98;100.00
7441;BME280;29616;51.950;8.572;2023-04-23T04:56:41;99233.00;;;10.98;100.00
7441;BME280;29616;51.950;8.572;2023-04-23T04:59:11;99228.53;;;11.05;100.00
7441;BME280;29616;51.950;8.572;2023-04-23T05:01:42;99228.16;;;11.08;100.00
7441;BME280;29616;51.950;8.572;2023-04-23T05:04:10;99227.81;;;11.11;100.00
7441;BME280;29616;51.950;8.572;2023-04-23T05:06:39;99225.97;;;11.03;100.00
7441;BME280;29616;51.950;8.572;2023-04-23T05:09:08;99222.53;;;11.09;100.00
7441;BME280;29616;51.950;8.572;2023-04-23T05:11:38;99222.34;;;11.11;100.00
7441;BME280;29616;51.950;8.572;2023-04-23T05:14:07;99209.34;;;11.13;100.00
7441;BME280;29616;51.950;8.572;2023-04-23T05:16:39;99212.78;;;11.15;100.00
7441;BME280;29616;51.950;8.572;2023-04-23T05:19:08;99223.69;;;11.23;100.00
7441;BME280;29616;51.950;8.572;2023-04-23T05:21:39;99229.47;;;11.28;100.00
7441;BME280;29616;51.950;8.572;2023-04-23T05:24:09;99238.16;;;11.31;100.00
7441;BME280;29616;51.950;8.572;2023-04-23T05:26:39;99228.72;;;11.34;100.00
7441;BME280;29616;51.950;8.572;2023-04-23T05:29:08;99234.16;;;11.42;100.00
7441;BME280;29616;51.950;8.572;2023-04-23T05:31:38;99233.59;;;11.54;100.00
7441;BME280;29616;51.950;8.572;2023-04-23T05:34:07;99234.56;;;11.62;100.00
7441;BME280;29616;51.950;8.572;2023-04-23T05:36:37;99225.88;;;11.58;100.00
7441;BME280;29616;51.950;8.572;2023-04-23T05:39:07;99227.00;;;11.72;100.00
7441;BME280;29616;51.950;8.572;2023-04-23T05:41:36;99237.97;;;11.72;100.00
7441;BME280;29616;51.950;8.572;2023-04-23T05:44:05;99247.69;;;11.74;100.00
7441;BME280;29616;51.950;8.572;2023-04-23T05:46:36;99241.19;;;11.75;100.00
7441;BME280;29616;51.950;8.572;2023-04-23T05:49:05;99237.25;;;11.78;100.00
7441;BME280;29616;51.950;8.572;2023-04-23T05:51:35;99242.25;;;11.97;100.00
7441;BME280;29616;51.950;8.572;2023-04-23T05:54:03;99217.78;;;11.95;100.00
7441;BME280;29616;51.950;8.572;2023-04-23T05:56:33;99225.63;;;11.98;100.00
7441;BME280;29616;51.950;8.572;2023-04-23T05:59:01;99227.59;;;12.12;100.00
7441;BME280;29616;51.950;8.572;2023-04-23T06:01:32;99232.09;;;12.05;100.00
7441;BME280;29616;51.950;8.572;2023-04-23T06:04:02;99230.19;;;12.29;100.00
7441;BME280;29616;51.950;8.572;2023-04-23T06:06:31;99221.22;;;12.35;100.00
7441;BME280;29616;51.950;8.572;2023-04-23T06:09:00;99224.63;;;12.37;100.00
7441;BME280;29616;51.950;8.572;2023-04-23T06:11:31;99218.84;;;12.32;100.00
7441;BME280;29616;51.950;8.572;2023-04-23T06:14:03;99216.91;;;12.55;100.00
7441;BME280;29616;51.950;8.572;2023-04-23T06:16:33;99220.88;;;13.55;100.00
7441;BME280;29616;51.950;8.572;2023-04-23T06:19:03;99218.72;;;14.49;100.00
7441;BME280;29616;51.950;8.572;2023-04-23T06:21:33;99216.22;;;13.91;100.00
7441;BME280;29616;51.950;8.572;2023-04-23T06:24:04;99216.06;;;13.57;100.00
7441;BME280;29616;51.950;8.572;2023-04-23T06:26:34;99221.59;;;13.27;100.00
7441;BME280;29616;51.950;8.572;2023-04-23T06:29:10;99226.13;;;13.20;100.00
7441;BME280;29616;51.950;8.572;2023-04-23T06:31:54;99209.41;;;13.30;100.00
7441;BME280;29616;51.950;8.572;2023-04-23T06:34:23;99218.97;;;14.12;100.00
7441;BME280;29616;51.950;8.572;2023-04-23T06:36:52;99212.28;;;14.64;100.00
7441;BME280;29616;51.950;8.572;2023-04-23T06:39:21;99204.06;;;14.98;100.00
7441;BME280;29616;51.950;8.572;2023-04-23T06:41:51;99201.66;;;15.29;100.00
7441;BME280;29616;51.950;8.572;2023-04-23T06:44:23;99190.69;;;15.90;100.00
7441;BME280;29616;51.950;8.572;2023-04-23T06:46:51;99208.53;;;16.39;100.00
7441;BME280;29616;51.950;8.572;2023-04-23T06:49:19;99213.13;;;17.31;100.00
7441;BME280;29616;51.950;8.572;2023-04-23T06:51:49;99204.25;;;18.42;100.00
7441;BME280;29616;51.950;8.572;2023-04-23T06:54:19;99192.78;;;18.70;100.00
7441;BME280;29616;51.950;8.572;2023-04-23T06:56:50;99203.03;;;18.38;100.00
7441;BME280;29616;51.950;8.572;2023-04-23T06:59:19;99200.56;;;17.92;100.00
7441;BME280;29616;51.950;8.572;2023-04-23T07:01:52;99204.69;;;17.13;100.00
7441;BME280;29616;51.950;8.572;2023-04-23T07:04:21;99196.50;;;16.67;100.00
7441;BME280;29616;51.950;8.572;2023-04-23T07:06:51;99195.41;;;16.74;100.00
7441;BME280;29616;51.950;8.572;2023-04-23T07:09:21;99193.75;;;16.60;100.00
7441;BME280;29616;51.950;8.572;2023-04-23T07:11:51;99187.63;;;17.86;100.00
7441;BME280;29616;51.950;8.572;2023-04-23T07:14:19;99192.09;;;18.18;100.00
7441;BME280;29616;51.950;8.572;2023-04-23T07:16:48;99191.34;;;18.05;100.00
7441;BME280;29616;51.950;8.572;2023-04-23T07:19:16;99184.91;;;17.80;100.00
7441;BME280;29616;51.950;8.572;2023-04-23T07:21:45;99179.69;;;18.59;100.00
7441;BME280;29616;51.950;8.572;2023-04-23T07:24:13;99177.19;;;19.36;100.00
7441;BME280;29616;51.950;8.572;2023-04-23T07:26:46;99194.84;;;18.99;100.00
7441;BME280;29616;51.950;8.572;2023-04-23T07:29:15;99183.78;;;20.02;100.00
7441;BME280;29616;51.950;8.572;2023-04-23T07:31:44;99171.09;;;19.46;100.00
7441;BME280;29616;51.950;8.572;2023-04-23T07:34:13;99168.97;;;18.38;100.00
7441;BME280;29616;51.950;8.572;2023-04-23T07:36:42;99170.34;;;19.21;100.00
7441;BME280;29616;51.950;8.572;2023-04-23T07:39:12;99151.03;;;19.80;100.00
7441;BME280;29616;51.950;8.572;2023-04-23T07:41:41;99166.69;;;20.05;100.00
7441;BME280;29616;51.950;8.572;2023-04-23T07:44:12;99166.59;;;20.23;98.15
7441;BME280;29616;51.950;8.572;2023-04-23T07:46:42;99165.16;;;20.20;100.00
7441;BME280;29616;51.950;8.572;2023-04-23T07:49:10;99150.06;;;20.46;94.15
7441;BME280;29616;51.950;8.572;2023-04-23T07:51:40;99162.88;;;20.82;100.00
7441;BME280;29616;51.950;8.572;2023-04-23T07:54:09;99152.97;;;20.86;91.60
7441;BME280;29616;51.950;8.572;2023-04-23T07:56:38;99149.72;;;20.77;92.76
7441;BME280;29616;51.950;8.572;2023-04-23T07:59:12;99151.41;;;21.01;82.85
7441;BME280;29616;51.950;8.572;2023-04-23T08:01:42;99166.22;;;20.61;84.31
7441;BME280;29616;51.950;8.572;2023-04-23T08:04:11;99155.84;;;20.56;85.56
7441;BME280;29616;51.950;8.572;2023-04-23T08:06:40;99161.88;;;20.76;100.00
7441;BME280;29616;51.950;8.572;2023-04-23T08:09:08;99157.22;;;21.11;92.88
7441;BME280;29616;51.950;8.572;2023-04-23T08:11:37;99167.34;;;20.83;94.06
7441;BME280;29616;51.950;8.572;2023-04-23T08:14:05;99158.41;;;20.81;100.00
7441;BME280;29616;51.950;8.572;2023-04-23T08:16:34;99161.66;;;21.36;100.00
7441;BME280;29616;51.950;8.572;2023-04-23T08:19:06;99156.59;;;21.21;100.00
7441;BME280;29616;51.950;8.572;2023-04-23T08:21:35;99158.50;;;20.97;100.00
7441;BME280;29616;51.950;8.572;2023-04-23T08:24:04;99143.69;;;20.80;100.00
7441;BME280;29616;51.950;8.572;2023-04-23T08:26:33;99134.50;;;21.26;100.00
7441;BME280;29616;51.950;8.572;2023-04-23T08:29:03;99139.28;;;21.42;100.00
7441;BME280;29616;51.950;8.572;2023-04-23T08:31:37;99144.97;;;21.36;100.00
7441;BME280;29616;51.950;8.572;2023-04-23T08:34:06;99142.94;;;21.20;100.00
7441;BME280;29616;51.950;8.572;2023-04-23T08:36:36;99134.91;;;21.86;100.00
7441;BME280;29616;51.950;8.572;2023-04-23T08:39:05;99139.22;;;21.65;100.00
7441;BME280;29616;51.950;8.572;2023-04-23T08:41:39;99145.75;;;21.59;100.00
7441;BME280;29616;51.950;8.572;2023-04-23T08:44:15;99139.22;;;21.54;100.00
7441;BME280;29616;51.950;8.572;2023-04-23T08:46:47;99132.13;;;21.46;100.00
7441;BME280;29616;51.950;8.572;2023-04-23T08:49:17;99140.53;;;21.11;100.00
7441;BME280;29616;51.950;8.572;2023-04-23T08:51:51;99140.38;;;21.41;100.00
7441;BME280;29616;51.950;8.572;2023-04-23T08:54:27;99130.63;;;21.04;100.00
7441;BME280;29616;51.950;8.572;2023-04-23T08:57:00;99130.31;;;21.40;100.00
7441;BME280;29616;51.950;8.572;2023-04-23T08:59:30;99128.19;;;21.19;100.00
7441;BME280;29616;51.950;8.572;2023-04-23T09:02:01;99128.09;;;22.22;100.00
7441;BME280;29616;51.950;8.572;2023-04-23T09:04:34;99133.97;;;22.25;100.00
7441;BME280;29616;51.950;8.572;2023-04-23T09:07:04;99132.78;;;22.05;100.00
7441;BME280;29616;51.950;8.572;2023-04-23T09:09:38;99128.72;;;21.56;100.00
7441;BME280;29616;51.950;8.572;2023-04-23T09:12:09;99125.06;;;22.40;98.89
7441;BME280;29616;51.950;8.572;2023-04-23T09:14:37;99107.66;;;22.33;97.86
7441;BME280;29616;51.950;8.572;2023-04-23T09:17:07;99130.03;;;21.53;100.00
7441;BME280;29616;51.950;8.572;2023-04-23T09:19:38;99127.97;;;20.74;100.00
7441;BME280;29616;51.950;8.572;2023-04-23T09:22:09;99123.63;;;20.67;100.00
7441;BME280;29616;51.950;8.572;2023-04-23T09:24:40;99125.22;;;20.51;100.00
7441;BME280;29616;51.950;8.572;2023-04-23T09:27:10;99116.41;;;20.01;100.00
7441;BME280;29616;51.950;8.572;2023-04-23T09:29:43;99114.22;;;20.03;100.00
7441;BME280;29616;51.950;8.572;2023-04-23T09:32:14;99118.06;;;20.02;100.00
7441;BME280;29616;51.950;8.572;2023-04-23T09:34:43;99104.19;;;21.01;100.00
7441;BME280;29616;51.950;8.572;2023-04-23T09:37:13;99103.88;;;22.56;100.00
7441;BME280;29616;51.950;8.572;2023-04-23T09:39:45;99086.19;;;21.55;100.00
7441;BME280;29616;51.950;8.572;2023-04-23T09:42:15;99105.28;;;20.66;100.00
7441;BME280;29616;51.950;8.572;2023-04-23T09:44:43;99087.47;;;20.09;100.00
7441;BME280;29616;51.950;8.572;2023-04-23T09:47:14;99085.22;;;20.98;100.00
7441;BME280;29616;51.950;8.572;2023-04-23T09:49:46;99091.16;;;22.26;100.00
7441;BME280;29616;51.950;8.572;2023-04-23T09:52:16;99095.09;;;21.86;100.00
7441;BME280;29616;51.950;8.572;2023-04-23T09:54:46;99088.09;;;21.95;100.00
7441;BME280;29616;51.950;8.572;2023-04-23T09:57:15;99083.38;;;22.12;100.00
7441;BME280;29616;51.950;8.572;2023-04-23T09:59:43;99093.31;;;22.58;100.00
7441;BME280;29616;51.950;8.572;2023-04-23T10:02:26;99089.53;;;22.47;100.00
7441;BME280;29616;51.950;8.572;2023-04-23T10:04:55;99075.97;;;23.27;96.13
7441;BME280;29616;51.950;8.572;2023-04-23T10:07:46;99067.03;;;22.15;100.00
7441;BME280;29616;51.950;8.572;2023-04-23T10:10:17;99079.75;;;21.83;100.00
7441;BME280;29616;51.950;8.572;2023-04-23T10:12:50;99068.34;;;21.40;100.00
7441;BME280;29616;51.950;8.572;2023-04-23T10:15:24;99084.00;;;21.06;100.00
7441;BME280;29616;51.950;8.572;2023-04-23T10:17:55;99079.84;;;21.32;100.00
7441;BME280;29616;51.950;8.572;2023-04-23T10:20:26;99085.59;;;22.26;100.00
7441;BME280;29616;51.950;8.572;2023-04-23T10:22:56;99076.28;;;24.01;94.96
7441;BME280;29616;51.950;8.572;2023-04-23T10:25:28;99072.91;;;24.99;81.99
7441;BME280;29616;51.950;8.572;2023-04-23T10:27:58;99075.91;;;25.35;82.67
7441;BME280;29616;51.950;8.572;2023-04-23T10:30:28;99081.53;;;24.51;79.19
7441;BME280;29616;51.950;8.572;2023-04-23T10:32:59;99092.59;;;23.87;88.98
7441;BME280;29616;51.950;8.572;2023-04-23T10:35:28;99081.91;;;23.79;87.67
7441;BME280;29616;51.950;8.572;2023-04-23T10:38:00;99086.59;;;23.09;83.60
7441;BME280;29616;51.950;8.572;2023-04-23T10:40:31;99099.66;;;22.86;88.46
7441;BME280;29616;51.950;8.572;2023-04-23T10:43:03;99096.81;;;22.48;99.47
7441;BME280;29616;51.950;8.572;2023-04-23T10:45:32;99089.75;;;21.96;99.45
7441;BME280;29616;51.950;8.572;2023-04-23T10:48:04;99080.81;;;21.65;100.00
7441;BME280;29616;51.950;8.572;2023-04-23T10:50:35;99082.72;;;21.77;100.00
7441;BME280;29616;51.950;8.572;2023-04-23T10:53:25;99080.66;;;22.17;99.98
7441;BME280;29616;51.950;8.572;2023-04-23T10:56:04;99071.47;;;22.33;98.70
7441;BME280;29616;51.950;8.572;2023-04-23T10:58:47;99073.44;;;22.32;100.00
7441;BME280;29616;51.950;8.572;2023-04-23T11:01:17;99062.63;;;22.03;100.00
7441;BME280;29616;51.950;8.572;2023-04-23T11:03:47;99075.47;;;21.47;100.00
7441;BME280;29616;51.950;8.572;2023-04-23T11:06:49;99081.50;;;20.93;100.00
7441;BME280;29616;51.950;8.572;2023-04-23T11:09:31;99077.78;;;20.76;100.00
7441;BME280;29616;51.950;8.572;2023-04-23T11:12:00;99087.53;;;20.32;100.00
7441;BME280;29616;51.950;8.572;2023-04-23T11:14:51;99086.59;;;20.38;94.63
7441;BME280;29616;51.950;8.572;2023-04-23T11:17:57;99083.84;;;20.08;98.33
7441;BME280;29616;51.950;8.572;2023-04-23T11:20:19;99072.53;;;19.39;100.00
7441;BME280;29616;51.950;8.572;2023-04-23T11:22:50;99081.94;;;19.67;100.00
7441;BME280;29616;51.950;8.572;2023-04-23T11:25:21;99075.63;;;20.02;100.00
7441;BME280;29616;51.950;8.572;2023-04-23T11:27:52;99065.78;;;20.87;91.89
7441;BME280;29616;51.950;8.572;2023-04-23T11:30:24;99064.13;;;21.37;84.71
7441;BME280;29616;51.950;8.572;2023-04-23T11:32:57;99051.19;;;21.71;83.07
7441;BME280;29616;51.950;8.572;2023-04-23T11:35:29;99060.09;;;22.18;77.87
7441;BME280;29616;51.950;8.572;2023-04-23T11:38:07;99047.94;;;21.91;79.38
7441;BME280;29616;51.950;8.572;2023-04-23T11:40:35;99051.53;;;21.46;83.48
7441;BME280;29616;51.950;8.572;2023-04-23T11:43:07;99050.34;;;21.42;79.27
7441;BME280;29616;51.950;8.572;2023-04-23T11:45:36;99051.25;;;21.31;83.26
7441;BME280;29616;51.950;8.572;2023-04-23T11:48:05;99037.81;;;21.56;79.67
7441;BME280;29616;51.950;8.572;2023-04-23T11:50:35;99037.53;;;21.98;81.19
7441;BME280;29616;51.950;8.572;2023-04-23T11:53:10;99046.78;;;21.87;83.12
7441;BME280;29616;51.950;8.572;2023-04-23T11:55:38;99046.78;;;22.03;82.38
7441;BME280;29616;51.950;8.572;2023-04-23T11:58:16;99033.91;;;22.14;82.79
7441;BME280;29616;51.950;8.572;2023-04-23T12:00:44;99028.91;;;22.16;82.03
7441;BME280;29616;51.950;8.572;2023-04-23T12:03:14;99039.88;;;22.22;84.59
7441;BME280;29616;51.950;8.572;2023-04-23T12:05:45;99030.22;;;22.47;84.21
7441;BME280;29616;51.950;8.572;2023-04-23T12:08:18;99033.13;;;22.02;88.84
7441;BME280;29616;51.950;8.572;2023-04-23T12:10:49;99028.06;;;22.15;95.53
7441;BME280;29616;51.950;8.572;2023-04-23T12:13:22;99017.00;;;22.54;91.99
7441;BME280;29616;51.950;8.572;2023-04-23T12:15:52;99027.50;;;22.85;88.18
7441;BME280;29616;51.950;8.572;2023-04-23T12:18:27;99028.22;;;22.59;89.97
7441;BME280;29616;51.950;8.572;2023-04-23T12:21:04;99011.28;;;22.82;93.79
7441;BME280;29616;51.950;8.572;2023-04-23T12:23:35;99016.59;;;23.48;80.29
7441;BME280;29616;51.950;8.572;2023-04-23T12:26:09;99015.47;;;24.71;76.05
7441;BME280;29616;51.950;8.572;2023-04-23T12:28:45;99002.50;;;25.02;71.90
7441;BME280;29616;51.950;8.572;2023-04-23T12:31:18;99009.03;;;24.71;70.62
7441;BME280;29616;51.950;8.572;2023-04-23T12:34:02;98978.38;;;23.71;75.29
7441;BME280;29616;51.950;8.572;2023-04-23T12:36:37;99000.16;;;23.47;87.58
7441;BME280;29616;51.950;8.572;2023-04-23T12:39:30;98987.00;;;24.38;76.68
7441;BME280;29616;51.950;8.572;2023-04-23T12:42:03;98983.97;;;24.39;76.85
7441;BME280;29616;51.950;8.572;2023-04-23T12:44:35;98989.34;;;24.14;76.58
7441;BME280;29616;51.950;8.572;2023-04-23T12:47:07;98992.16;;;24.51;74.63
7441;BME280;29616;51.950;8.572;2023-04-23T12:49:40;98990.81;;;25.10;68.83
7441;BME280;29616;51.950;8.572;2023-04-23T12:52:12;98997.00;;;25.17;71.40
7441;BME280;29616;51.950;8.572;2023-04-23T12:54:43;98984.13;;;25.16;65.54
7441;BME280;29616;51.950;8.572;2023-04-23T12:57:12;98980.66;;;25.71;66.07
7441;BME280;29616;51.950;8.572;2023-04-23T12:59:45;98987.13;;;26.32;58.80
7441;BME280;29616;51.950;8.572;2023-04-23T13:02:14;98982.59;;;25.56;63.73
7441;BME280;29616;51.950;8.572;2023-04-23T13:04:44;98972.00;;;25.93;71.31
7441;BME280;29616;51.950;8.572;2023-04-23T13:07:14;98969.81;;;26.15;63.95
7441;BME280;29616;51.950;8.572;2023-04-23T13:09:44;98974.19;;;24.79;60.54
7441;BME280;29616;51.950;8.572;2023-04-23T13:12:13;98969.34;;;23.37;67.06
7441;BME280;29616;51.950;8.572;2023-04-23T13:14:43;98966.00;;;22.91;70.13
7441;BME280;29616;51.950;8.572;2023-04-23T13:17:12;98969.66;;;22.54;79.07
7441;BME280;29616;51.950;8.572;2023-04-23T13:19:41;98962.00;;;22.82;79.75
7441;BME280;29616;51.950;8.572;2023-04-23T13:22:11;98954.84;;;23.13;68.54
7441;BME280;29616;51.950;8.572;2023-04-23T13:24:42;98944.44;;;23.84;61.36